Masheh, Iran
Current Conditions -  °F | °C
As of 5:00 AM on Thursday 23 Oct 2014 (Local Time) from OIBK Reporting Station
Clear Clear  
Wind Chill: 81°   Ceiling: Unl
Heat Index: 81°   Visibility: 6mi
Dew Point: 59°   Wind: 23mph
Humidity: 48%   Direction: 320°NW
Pressure: 29.85"   Gusts: NA
Location:  26.55°N, 54.02°E
Report Text: OIBK 230200Z 32020KT CAVOK 27/15 Q1011
Loading
Personal Weather Stations






























Interactive Weather Map
Tropical Storm Tracking
New forecast layout! Learn more

10-Day Weather Forecast

Advertisements
Track Severe Weather on mobile